createdAt,value
2019-04-10T00:02:01.533Z,24.72
2019-04-10T00:04:29.744Z,24.47
2019-04-10T00:07:08.379Z,28.75
2019-04-10T00:09:28.576Z,32.15
2019-04-10T00:11:57.070Z,35.50
2019-04-10T00:14:26.131Z,26.60
2019-04-10T00:16:54.590Z,30.27
2019-04-10T00:19:23.158Z,27.22
2019-04-10T00:21:51.613Z,31.82
2019-04-10T00:24:20.039Z,27.98
2019-04-10T00:26:48.442Z,27.10
2019-04-10T00:29:16.893Z,24.00
2019-04-10T00:31:45.297Z,27.40
2019-04-10T00:34:17.701Z,22.02
2019-04-10T00:36:46.249Z,24.00
2019-04-10T00:39:14.794Z,24.32
2019-04-10T00:41:44.109Z,26.52
2019-04-10T00:44:13.355Z,30.12
2019-04-10T00:46:42.130Z,32.00
2019-04-10T00:49:10.685Z,25.43
2019-04-10T00:51:39.503Z,28.90
2019-04-10T00:54:08.036Z,29.65
2019-04-10T00:56:36.845Z,28.42
2019-04-10T00:59:06.012Z,26.30
2019-04-10T01:01:34.475Z,28.02
2019-04-10T01:04:02.932Z,24.43
2019-04-10T01:06:32.286Z,26.68
2019-04-10T01:09:01.387Z,25.45
2019-04-10T01:11:30.751Z,27.45
2019-04-10T01:13:59.312Z,28.38
2019-04-10T01:16:27.749Z,25.48
2019-04-10T01:18:56.446Z,29.05
2019-04-10T01:21:25.035Z,40.10
2019-04-10T01:23:53.464Z,42.98
2019-04-10T01:26:21.976Z,71.57
2019-04-10T01:28:51.233Z,74.03
2019-04-10T01:31:20.066Z,75.52
2019-04-10T01:33:49.234Z,88.40
2019-04-10T01:36:18.607Z,95.77
2019-04-10T01:38:47.147Z,99.60
2019-04-10T01:41:15.706Z,112.60
2019-04-10T01:43:44.190Z,109.10
2019-04-10T01:46:13.776Z,109.75
2019-04-10T01:48:42.248Z,118.05
2019-04-10T01:51:10.840Z,111.72
2019-04-10T01:53:39.403Z,115.67
2019-04-10T01:56:21.217Z,117.17
2019-04-10T01:58:39.556Z,115.70
2019-04-10T02:01:28.361Z,121.25
2019-04-10T02:03:56.857Z,116.42
2019-04-10T02:06:25.380Z,117.28
2019-04-10T02:08:54.224Z,112.08
2019-04-10T02:11:23.894Z,111.08
2019-04-10T02:13:52.433Z,125.92
2019-04-10T02:16:20.915Z,117.77
2019-04-10T02:18:49.968Z,119.87
2019-04-10T02:21:18.513Z,115.75
2019-04-10T02:23:46.993Z,117.80
2019-04-10T02:26:15.456Z,116.08
2019-04-10T02:28:44.940Z,115.90
2019-04-10T02:31:14.688Z,109.48
2019-04-10T02:33:43.331Z,113.03
2019-04-10T02:36:13.031Z,110.75
2019-04-10T02:38:56.865Z,114.32
2019-04-10T02:41:12.133Z,114.42
2019-04-10T02:43:40.764Z,107.30
2019-04-10T02:46:11.285Z,110.48
2019-04-10T02:48:41.526Z,106.80
2019-04-10T02:51:10.217Z,108.42
2019-04-10T02:53:39.345Z,112.28
2019-04-10T02:56:07.993Z,106.97
2019-04-10T02:58:36.447Z,109.22
2019-04-10T03:01:05.001Z,108.90
2019-04-10T03:03:34.292Z,109.70
2019-04-10T03:06:02.873Z,105.97
2019-04-10T03:08:44.771Z,106.58
2019-04-10T03:11:04.130Z,104.25
2019-04-10T03:13:33.537Z,110.05
2019-04-10T03:16:03.130Z,102.17
2019-04-10T03:18:32.674Z,108.25
2019-04-10T03:21:01.218Z,108.50
2019-04-10T03:23:29.647Z,107.50
2019-04-10T03:25:59.378Z,103.87
2019-04-10T03:28:29.128Z,100.78
2019-04-10T03:30:59.967Z,103.65
2019-04-10T03:33:32.756Z,104.63
2019-04-10T03:36:00.101Z,103.02
2019-04-10T03:38:28.596Z,107.30
2019-04-10T03:40:57.027Z,105.52
2019-04-10T03:43:25.832Z,101.67
2019-04-10T03:45:55.129Z,106.03
2019-04-10T03:48:23.702Z,110.75
2019-04-10T03:50:52.236Z,107.72
2019-04-10T03:53:20.753Z,101.10
2019-04-10T03:55:49.420Z,107.37
2019-04-10T03:58:19.697Z,103.25
2019-04-10T04:00:48.225Z,104.27
2019-04-10T04:03:16.669Z,106.85
2019-04-10T04:05:45.129Z,107.03
2019-04-10T04:08:13.590Z,107.35
2019-04-10T04:10:42.612Z,111.10
2019-04-10T04:13:11.193Z,113.72
2019-04-10T04:15:39.761Z,106.67
2019-04-10T04:18:08.874Z,107.70
2019-04-10T04:20:37.455Z,113.52
2019-04-10T04:23:05.890Z,119.17
2019-04-10T04:25:34.509Z,114.28
2019-04-10T04:28:03.050Z,116.53
2019-04-10T04:30:32.066Z,118.65
2019-04-10T04:33:00.582Z,119.57
2019-04-10T04:35:30.073Z,119.55
2019-04-10T04:37:58.518Z,126.00
2019-04-10T04:40:27.851Z,127.97
2019-04-10T04:42:56.481Z,130.85
2019-04-10T04:45:25.668Z,128.40
2019-04-10T04:47:54.168Z,136.10
2019-04-10T04:50:22.610Z,128.65
2019-04-10T04:52:51.992Z,132.45
2019-04-10T04:55:20.599Z,125.87
2019-04-10T04:57:49.179Z,131.30
2019-04-10T05:00:17.697Z,124.27
2019-04-10T05:02:47.030Z,136.25
2019-04-10T05:05:16.424Z,134.52
2019-04-10T05:07:55.520Z,131.70
2019-04-10T05:10:17.340Z,136.03
2019-04-10T05:12:45.851Z,131.07
2019-04-10T05:15:14.427Z,126.78
2019-04-10T05:17:42.869Z,121.40
2019-04-10T05:20:11.366Z,123.92
2019-04-10T05:22:39.893Z,125.30
2019-04-10T05:25:11.447Z,129.70
2019-04-10T05:27:39.893Z,128.80
2019-04-10T05:30:08.558Z,122.13
2019-04-10T05:32:37.603Z,124.65
2019-04-10T05:35:10.186Z,128.00
2019-04-10T05:37:40.086Z,124.10
2019-04-10T05:40:11.898Z,126.70
2019-04-10T05:42:41.341Z,135.00
2019-04-10T05:45:10.336Z,134.47
2019-04-10T05:47:38.877Z,144.05
2019-04-10T05:50:07.907Z,138.55
2019-04-10T05:52:37.390Z,135.25
2019-04-10T05:55:06.502Z,136.18
2019-04-10T05:57:37.528Z,131.60
2019-04-10T06:00:10.414Z,131.63
2019-04-10T06:02:39.812Z,125.33
2019-04-10T06:05:08.470Z,131.52
2019-04-10T06:07:37.147Z,129.30
2019-04-10T06:10:10.339Z,122.40
2019-04-10T06:12:38.416Z,117.97
2019-04-10T06:15:08.665Z,123.62
2019-04-10T06:17:37.192Z,127.50
2019-04-10T06:20:09.035Z,127.95
2019-04-10T06:22:38.783Z,119.93
2019-04-10T06:25:09.198Z,131.03
2019-04-10T06:27:38.861Z,124.27
2019-04-10T06:30:08.144Z,130.70
2019-04-10T06:32:37.596Z,124.00
2019-04-10T06:35:08.368Z,127.67
2019-04-10T06:37:37.905Z,125.55
2019-04-10T06:40:15.286Z,127.12
2019-04-10T06:42:46.178Z,120.97
2019-04-10T06:45:07.557Z,124.82
2019-04-10T06:47:36.211Z,117.47
2019-04-10T06:50:06.880Z,116.30
2019-04-10T06:52:35.294Z,119.60
2019-04-10T06:55:05.599Z,109.37
2019-04-10T06:57:47.633Z,112.15
2019-04-10T07:00:12.222Z,107.85
2019-04-10T07:02:38.972Z,103.58
2019-04-10T07:05:10.437Z,100.85
2019-04-10T07:07:47.498Z,99.67
2019-04-10T07:10:21.518Z,98.37
2019-04-10T07:12:39.767Z,95.35
2019-04-10T07:15:08.857Z,94.58
2019-04-10T07:17:40.644Z,92.72
2019-04-10T07:20:07.999Z,93.15
2019-04-10T07:22:36.649Z,83.33
2019-04-10T07:25:09.312Z,89.85
2019-04-10T07:27:38.589Z,88.52
2019-04-10T07:30:08.152Z,96.15
2019-04-10T07:32:42.079Z,87.25
2019-04-10T07:35:07.234Z,90.30
2019-04-10T07:37:36.219Z,89.92
2019-04-10T07:40:07.918Z,83.82
2019-04-10T07:42:38.840Z,81.00
2019-04-10T07:45:07.824Z,86.82
2019-04-10T07:47:37.874Z,77.27
2019-04-10T07:50:08.775Z,83.05
2019-04-10T07:52:37.507Z,73.95
2019-04-10T07:55:06.576Z,83.03
2019-04-10T07:57:36.280Z,80.05
2019-04-10T08:00:08.656Z,78.85
2019-04-10T08:02:38.516Z,87.75
2019-04-10T08:05:08.178Z,80.72
2019-04-10T08:07:38.793Z,75.83
2019-04-10T08:10:07.934Z,82.97
2019-04-10T08:12:44.620Z,72.37
2019-04-10T08:15:09.120Z,73.37
2019-04-10T08:17:38.867Z,68.52
2019-04-10T08:20:07.941Z,75.78
2019-04-10T08:22:37.096Z,70.15
2019-04-10T08:25:08.728Z,64.72
2019-04-10T08:27:38.494Z,65.75
2019-04-10T08:30:10.850Z,66.10
2019-04-10T08:32:50.907Z,67.50
2019-04-10T08:35:09.605Z,62.65
2019-04-10T08:37:39.061Z,61.13
2019-04-10T08:40:09.601Z,60.45
2019-04-10T08:42:40.200Z,60.43
2019-04-10T08:45:09.497Z,56.68
2019-04-10T08:47:37.956Z,60.63
2019-04-10T08:50:07.855Z,55.00
2019-04-10T08:52:37.063Z,58.68
2019-04-10T08:55:06.291Z,61.98
2019-04-10T08:57:34.717Z,52.88
2019-04-10T09:00:04.851Z,52.50
2019-04-10T09:02:33.898Z,53.98
2019-04-10T09:05:03.536Z,55.03
2019-04-10T09:07:33.624Z,52.78
2019-04-10T09:10:02.066Z,54.30
2019-04-10T09:12:31.586Z,54.80
2019-04-10T09:15:01.343Z,53.33
2019-04-10T09:17:31.233Z,57.95
2019-04-10T09:20:00.606Z,54.45
2019-04-10T09:22:41.885Z,54.10
2019-04-10T09:25:00.578Z,51.02
2019-04-10T09:27:29.173Z,52.38
2019-04-10T09:29:57.706Z,50.78
2019-04-10T09:32:26.469Z,50.33
2019-04-10T09:34:56.068Z,51.65
2019-04-10T09:37:24.642Z,49.88
2019-04-10T09:39:53.922Z,52.95
2019-04-10T09:42:23.600Z,50.85
2019-04-10T09:44:52.813Z,52.40
2019-04-10T09:47:22.491Z,62.85
2019-04-10T09:49:51.388Z,50.65
2019-04-10T09:52:19.912Z,49.67
2019-04-10T09:54:48.948Z,47.67
2019-04-10T09:57:17.824Z,49.33
2019-04-10T09:59:47.304Z,47.50
2019-04-10T10:02:16.235Z,46.23
2019-04-10T10:04:46.009Z,47.62
2019-04-10T10:07:14.471Z,44.63
2019-04-10T10:09:43.133Z,46.75
2019-04-10T10:12:11.837Z,43.73
2019-04-10T10:14:40.342Z,44.63
2019-04-10T10:17:08.941Z,45.40
2019-04-10T10:19:39.171Z,49.45
2019-04-10T10:22:07.697Z,44.60
2019-04-10T10:24:36.140Z,45.35
2019-04-10T10:27:05.365Z,46.42
2019-04-10T10:29:37.450Z,43.52
2019-04-10T10:32:06.134Z,42.17
2019-04-10T10:34:34.623Z,46.58
2019-04-10T10:37:03.952Z,45.90
2019-04-10T10:39:32.418Z,42.73
2019-04-10T10:42:00.874Z,43.48
2019-04-10T10:44:30.124Z,39.88
2019-04-10T10:46:59.946Z,40.15
2019-04-10T10:49:28.666Z,40.83
2019-04-10T10:51:57.309Z,39.60
2019-04-10T10:54:26.841Z,37.90
2019-04-10T10:56:56.049Z,40.63
2019-04-10T10:59:25.234Z,41.68
2019-04-10T11:01:53.920Z,40.67
2019-04-10T11:04:23.233Z,41.08
2019-04-10T11:06:59.376Z,38.00
2019-04-10T11:09:22.105Z,39.85
2019-04-10T11:11:50.565Z,39.48
2019-04-10T11:14:19.177Z,36.35
2019-04-10T11:16:47.717Z,43.40
2019-04-10T11:19:17.293Z,37.53
2019-04-10T11:21:47.064Z,35.20
2019-04-10T11:24:15.712Z,39.98
2019-04-10T11:26:44.179Z,36.23
2019-04-10T11:29:14.209Z,37.67
2019-04-10T11:31:42.957Z,34.92
2019-04-10T11:34:11.471Z,36.25
2019-04-10T11:36:40.095Z,40.80
2019-04-10T11:39:19.279Z,35.65
2019-04-10T11:41:41.313Z,34.05
2019-04-10T11:44:11.519Z,37.50
2019-04-10T11:46:41.893Z,34.78
2019-04-10T11:49:13.874Z,37.48
2019-04-10T11:51:41.079Z,35.28
2019-04-10T11:54:12.965Z,40.45
2019-04-10T11:56:39.920Z,37.35
2019-04-10T11:59:11.280Z,38.42
2019-04-10T12:01:39.362Z,42.43
2019-04-10T12:04:10.724Z,33.78
2019-04-10T12:06:40.309Z,35.63
2019-04-10T12:11:41.559Z,36.03
2019-04-10T12:14:11.096Z,33.80
2019-04-10T12:16:39.713Z,33.42
2019-04-10T12:19:10.953Z,31.85
2019-04-10T12:21:40.012Z,35.52
2019-04-10T12:24:09.525Z,32.58
2019-04-10T12:26:38.132Z,29.27
2019-04-10T12:29:06.737Z,30.43
2019-04-10T12:31:36.363Z,30.68
2019-04-10T12:34:05.168Z,29.35
2019-04-10T12:36:36.365Z,29.85
2019-04-10T12:39:07.908Z,30.08
2019-04-10T12:41:36.676Z,29.98
2019-04-10T12:44:05.363Z,32.63
2019-04-10T12:46:33.878Z,30.70
2019-04-10T12:49:03.739Z,29.85
2019-04-10T12:51:32.403Z,36.23
2019-04-10T12:54:01.163Z,29.20
2019-04-10T12:56:30.365Z,30.80
2019-04-10T12:58:59.356Z,33.25
2019-04-10T13:01:28.902Z,31.07
2019-04-10T13:03:57.872Z,27.58
2019-04-10T13:06:26.381Z,29.67
2019-04-10T13:09:05.058Z,27.73
2019-04-10T13:11:24.995Z,31.70
2019-04-10T13:13:54.565Z,32.03
2019-04-10T13:16:23.845Z,31.62
2019-04-10T13:18:52.455Z,29.32
2019-04-10T13:21:22.111Z,29.80
2019-04-10T13:24:10.937Z,28.32
2019-04-10T13:26:39.800Z,26.55
2019-04-10T13:29:08.352Z,25.50
2019-04-10T13:31:37.329Z,31.12
2019-04-10T13:34:05.975Z,28.92
2019-04-10T13:36:35.533Z,30.15
2019-04-10T13:39:06.672Z,27.22
2019-04-10T13:41:36.668Z,29.15
2019-04-10T13:44:06.492Z,27.02
2019-04-10T13:46:38.281Z,28.35
2019-04-10T13:49:09.520Z,29.50
2019-04-10T13:51:37.989Z,29.67
2019-04-10T13:54:06.525Z,30.08
2019-04-10T13:56:35.088Z,28.05
2019-04-10T13:59:04.672Z,32.45
2019-04-10T14:01:35.570Z,31.55
2019-04-10T14:04:05.024Z,30.37
2019-04-10T14:06:33.981Z,27.98
2019-04-10T14:09:22.523Z,27.55
2019-04-10T14:11:33.543Z,31.00
2019-04-10T14:14:04.512Z,27.70
2019-04-10T14:16:33.626Z,31.30
2019-04-10T14:19:03.288Z,26.35
2019-04-10T14:21:31.865Z,27.75
2019-04-10T14:24:02.747Z,28.30
2019-04-10T14:26:52.189Z,30.02
2019-04-10T14:29:22.648Z,29.70
2019-04-10T14:32:02.123Z,27.98
2019-04-10T14:34:30.585Z,26.55
2019-04-10T14:36:59.037Z,24.98
2019-04-10T14:39:31.935Z,29.12
2019-04-10T14:44:30.671Z,27.20
2019-04-10T14:47:00.236Z,25.77
2019-04-10T14:49:29.313Z,26.37
2019-04-10T14:51:58.897Z,27.87
2019-04-10T14:54:30.099Z,31.07
2019-04-10T14:56:59.608Z,28.83
2019-04-10T14:59:31.711Z,28.75
2019-04-10T15:02:02.263Z,31.87
2019-04-10T15:04:31.017Z,31.48
2019-04-10T15:06:59.731Z,32.60
2019-04-10T15:09:30.619Z,25.30
2019-04-10T15:12:00.778Z,26.73
2019-04-10T15:14:33.886Z,28.70
2019-04-10T15:17:06.618Z,29.25
2019-04-10T15:19:37.444Z,29.80
2019-04-10T15:22:11.558Z,27.37
2019-04-10T15:24:40.233Z,26.95
2019-04-10T15:27:11.155Z,27.07
2019-04-10T15:29:40.773Z,27.00
2019-04-10T15:32:10.836Z,29.77
2019-04-10T15:34:39.610Z,25.20
2019-04-10T15:37:08.855Z,30.90
2019-04-10T15:39:41.778Z,30.80
2019-04-10T15:42:14.207Z,26.85
2019-04-10T15:44:42.847Z,31.15
2019-04-10T15:47:19.693Z,35.10
2019-04-10T15:49:45.011Z,32.38
2019-04-10T15:52:14.413Z,32.03
2019-04-10T15:54:46.240Z,30.20
2019-04-10T15:57:14.698Z,26.95
2019-04-10T15:59:44.765Z,27.55
2019-04-10T16:02:13.302Z,32.83
2019-04-10T16:04:42.318Z,28.60
2019-04-10T16:07:14.501Z,32.55
2019-04-10T16:09:47.653Z,26.45
2019-04-10T16:12:18.633Z,29.65
2019-04-10T16:14:47.213Z,27.65
2019-04-10T16:17:19.964Z,31.80
2019-04-10T16:19:51.209Z,27.62
2019-04-10T16:22:21.433Z,28.05
2019-04-10T16:24:51.493Z,27.87
2019-04-10T16:27:20.164Z,26.60
2019-04-10T16:29:51.697Z,27.77
2019-04-10T16:32:21.837Z,29.60
2019-04-10T16:34:52.655Z,25.50
2019-04-10T16:37:24.268Z,22.52
2019-04-10T16:40:00.316Z,24.00
2019-04-10T16:42:24.625Z,25.43
2019-04-10T16:44:53.358Z,22.45
2019-04-10T16:47:23.716Z,22.50
2019-04-10T16:49:53.103Z,21.73
2019-04-10T16:52:21.718Z,20.75
2019-04-10T16:54:51.358Z,23.83
2019-04-10T16:57:20.690Z,26.57
2019-04-10T16:59:49.229Z,21.80
2019-04-10T17:02:17.901Z,23.10
2019-04-10T17:04:46.483Z,27.00
2019-04-10T17:07:15.036Z,22.20
2019-04-10T17:09:45.457Z,23.12
2019-04-10T17:12:14.021Z,21.52
2019-04-10T17:14:43.926Z,20.23
2019-04-10T17:17:12.593Z,21.33
2019-04-10T17:19:49.340Z,22.10
2019-04-10T17:22:12.446Z,22.77
2019-04-10T17:24:41.827Z,20.45
2019-04-10T17:27:11.184Z,19.05
2019-04-10T17:29:40.976Z,21.30
2019-04-10T17:32:10.988Z,24.02
2019-04-10T17:34:40.977Z,22.45
2019-04-10T17:37:09.831Z,25.90
2019-04-10T17:39:39.428Z,28.75
2019-04-10T17:42:08.393Z,24.57
2019-04-10T17:44:38.043Z,24.07
2019-04-10T17:47:08.666Z,22.70
2019-04-10T17:49:39.327Z,27.07
2019-04-10T17:52:08.250Z,25.45
2019-04-10T17:54:36.916Z,22.32
2019-04-10T17:57:07.168Z,24.98
2019-04-10T17:59:35.665Z,24.35
2019-04-10T18:02:06.086Z,21.57
2019-04-10T18:04:34.819Z,22.13
2019-04-10T18:07:03.882Z,21.25
2019-04-10T18:09:32.783Z,23.10
2019-04-10T18:12:01.889Z,23.45
2019-04-10T18:14:31.317Z,21.70
2019-04-10T18:17:02.513Z,24.85
2019-04-10T18:19:32.293Z,26.68
2019-04-10T18:22:03.721Z,23.70
2019-04-10T18:24:32.752Z,22.98
2019-04-10T18:27:01.358Z,26.07
2019-04-10T18:29:30.920Z,23.57
2019-04-10T18:32:00.930Z,23.38
2019-04-10T18:34:30.550Z,24.50
2019-04-10T18:37:04.434Z,24.65
2019-04-10T18:39:40.879Z,25.17
2019-04-10T18:42:09.729Z,24.72
2019-04-10T18:44:42.539Z,27.20
2019-04-10T18:47:14.544Z,26.77
2019-04-10T18:49:43.548Z,25.08
2019-04-10T18:52:15.000Z,24.92
2019-04-10T18:54:43.629Z,23.55
2019-04-10T18:57:12.073Z,23.80
2019-04-10T18:59:42.841Z,23.05
2019-04-10T19:02:30.359Z,24.15
2019-04-10T19:05:16.906Z,27.20
2019-04-10T19:07:46.204Z,21.68
2019-04-10T19:10:14.952Z,25.65
2019-04-10T19:12:43.481Z,25.97
2019-04-10T19:15:12.732Z,22.35
2019-04-10T19:17:41.945Z,23.90
2019-04-10T19:20:11.061Z,23.15
2019-04-10T19:22:40.130Z,30.72
2019-04-10T19:25:10.393Z,22.15
2019-04-10T19:27:40.733Z,21.45
2019-04-10T19:30:14.955Z,27.30
2019-04-10T19:32:43.755Z,22.77
2019-04-10T19:35:12.914Z,22.55
2019-04-10T19:37:42.670Z,25.00
2019-04-10T19:40:11.785Z,23.60
2019-04-10T19:42:41.688Z,23.77
2019-04-10T19:45:10.414Z,24.07
2019-04-10T19:47:38.950Z,22.80
2019-04-10T19:50:08.758Z,23.35
2019-04-10T19:52:38.369Z,29.87
2019-04-10T19:55:08.553Z,28.25
2019-04-10T19:57:37.416Z,23.57
2019-04-10T20:00:11.042Z,23.12
2019-04-10T20:02:43.603Z,25.43
2019-04-10T20:05:12.868Z,25.60
2019-04-10T20:07:41.481Z,28.10
2019-04-10T20:10:10.903Z,26.05
2019-04-10T20:12:40.406Z,25.92
2019-04-10T20:15:10.692Z,31.42
2019-04-10T20:17:39.917Z,28.75
2019-04-10T20:20:08.625Z,26.25
2019-04-10T20:22:39.120Z,26.27
2019-04-10T20:25:08.288Z,30.17
2019-04-10T20:27:40.264Z,34.27
2019-04-10T20:30:07.846Z,30.25
2019-04-10T20:32:36.451Z,31.80
2019-04-10T20:35:06.224Z,30.02
2019-04-10T20:37:34.736Z,35.08
2019-04-10T20:40:03.555Z,37.10
2019-04-10T20:42:32.188Z,57.05
2019-04-10T20:45:00.929Z,52.17
2019-04-10T20:47:29.444Z,37.67
2019-04-10T20:49:57.860Z,37.00
2019-04-10T20:52:26.446Z,33.45
2019-04-10T20:54:55.264Z,32.20
2019-04-10T20:57:23.893Z,32.90
2019-04-10T20:59:53.261Z,31.60
2019-04-10T21:02:22.345Z,30.25
2019-04-10T21:04:58.712Z,29.57
2019-04-10T21:07:21.346Z,29.10
2019-04-10T21:09:50.275Z,30.82
2019-04-10T21:12:21.027Z,40.70
2019-04-10T21:14:49.167Z,47.27
2019-04-10T21:17:17.617Z,42.55
2019-04-10T21:19:46.402Z,40.35
2019-04-10T21:22:15.851Z,40.92
2019-04-10T21:24:45.468Z,32.20
2019-04-10T21:27:14.163Z,31.87
2019-04-10T21:30:01.767Z,31.20
2019-04-10T21:32:32.781Z,27.85
2019-04-10T21:35:03.942Z,29.87
2019-04-10T21:37:32.648Z,33.23
2019-04-10T21:40:01.083Z,31.55
2019-04-10T21:42:29.827Z,34.92
2019-04-10T21:44:58.321Z,33.08
2019-04-10T21:47:27.662Z,35.03
2019-04-10T21:49:56.901Z,39.18
2019-04-10T21:52:28.309Z,34.50
2019-04-10T21:54:59.262Z,33.13
2019-04-10T21:57:26.956Z,43.25
2019-04-10T21:59:56.036Z,35.65
2019-04-10T22:02:24.685Z,34.03
2019-04-10T22:04:53.129Z,38.80
2019-04-10T22:07:40.513Z,31.17
2019-04-10T22:10:12.006Z,30.80
2019-04-10T22:12:46.958Z,35.43
2019-04-10T22:15:18.710Z,34.92
2019-04-10T22:17:48.000Z,32.63
2019-04-10T22:20:17.185Z,34.98
2019-04-10T22:22:45.815Z,30.50
2019-04-10T22:25:15.166Z,27.50
2019-04-10T22:27:43.775Z,29.98
2019-04-10T22:30:12.921Z,31.37
2019-04-10T22:32:41.350Z,32.95
2019-04-10T22:35:10.960Z,32.85
2019-04-10T22:37:39.970Z,32.13
2019-04-10T22:40:08.699Z,35.33
2019-04-10T22:42:44.046Z,32.93
2019-04-10T22:45:24.659Z,35.00
2019-04-10T22:47:52.713Z,36.80
2019-04-10T22:50:22.301Z,35.68
2019-04-10T22:52:52.923Z,45.05
2019-04-10T22:55:22.003Z,51.88
2019-04-10T22:57:50.608Z,46.80
2019-04-10T23:00:22.264Z,41.88
2019-04-10T23:02:52.832Z,42.55
2019-04-10T23:05:20.940Z,32.23
2019-04-10T23:07:49.368Z,33.63
2019-04-10T23:10:19.059Z,31.73
2019-04-10T23:12:55.982Z,32.38
2019-04-10T23:15:17.880Z,32.90
2019-04-10T23:17:46.313Z,31.70
2019-04-10T23:20:18.526Z,29.65
2019-04-10T23:22:48.864Z,31.10
2019-04-10T23:25:18.277Z,30.70
2019-04-10T23:27:51.470Z,30.25
2019-04-10T23:30:19.972Z,34.23
2019-04-10T23:32:48.862Z,32.80
2019-04-10T23:35:17.393Z,36.05
2019-04-10T23:37:46.899Z,34.00
2019-04-10T23:40:16.548Z,33.88
2019-04-10T23:42:46.312Z,27.50
2019-04-10T23:45:15.558Z,33.48
2019-04-10T23:47:44.432Z,33.58
2019-04-10T23:50:15.041Z,34.60
2019-04-10T23:52:44.320Z,31.23
2019-04-10T23:55:13.623Z,30.92
2019-04-10T23:57:43.332Z,32.30
